createdAt,value
2022-08-07T00:03:28.522Z,17.10
2022-08-07T00:07:19.090Z,17.10
2022-08-07T00:11:01.063Z,17.00
2022-08-07T00:14:48.485Z,17.00
2022-08-07T00:18:30.895Z,16.90
2022-08-07T00:22:13.143Z,16.90
2022-08-07T00:26:18.785Z,16.80
2022-08-07T00:30:27.571Z,16.80
2022-08-07T00:34:10.745Z,16.70
2022-08-07T00:37:52.901Z,16.60
2022-08-07T00:41:37.340Z,16.50
2022-08-07T00:45:35.398Z,16.50
2022-08-07T00:49:24.808Z,16.50
2022-08-07T00:53:21.434Z,16.50
2022-08-07T00:57:06.167Z,16.40
2022-08-07T01:00:53.795Z,16.30
2022-08-07T01:04:43.247Z,16.20
2022-08-07T01:08:25.915Z,16.20
2022-08-07T01:12:30.010Z,16.10
2022-08-07T01:16:13.049Z,16.00
2022-08-07T01:20:16.888Z,16.00
2022-08-07T01:24:02.359Z,15.90
2022-08-07T01:27:51.419Z,15.80
2022-08-07T01:31:42.754Z,15.80
2022-08-07T01:35:52.876Z,15.70
2022-08-07T01:39:40.826Z,15.70
2022-08-07T01:43:34.538Z,15.60
2022-08-07T01:48:19.571Z,15.60
2022-08-07T01:52:01.260Z,15.50
2022-08-07T01:55:36.742Z,15.50
2022-08-07T01:59:31.179Z,15.50
2022-08-07T02:03:21.389Z,15.50
2022-08-07T02:07:08.008Z,15.40
2022-08-07T02:10:58.099Z,15.40
2022-08-07T02:14:41.302Z,15.30
2022-08-07T02:18:26.001Z,15.20
2022-08-07T02:22:18.520Z,15.10
2022-08-07T02:26:31.341Z,15.10
2022-08-07T02:30:08.535Z,15.10
2022-08-07T02:34:03.914Z,15.10
2022-08-07T02:37:54.451Z,15.00
2022-08-07T02:41:37.418Z,15.00
2022-08-07T02:46:00.491Z,15.00
2022-08-07T02:49:28.753Z,14.90
2022-08-07T02:53:33.999Z,14.80
2022-08-07T02:57:21.935Z,14.80
2022-08-07T03:01:05.274Z,14.70
2022-08-07T03:05:00.615Z,14.70
2022-08-07T03:08:47.792Z,14.60
2022-08-07T03:12:32.695Z,14.60
2022-08-07T03:16:15.080Z,14.50
2022-08-07T03:19:57.532Z,14.50
2022-08-07T03:24:18.159Z,14.40
2022-08-07T03:27:59.199Z,14.40
2022-08-07T03:31:50.059Z,14.40
2022-08-07T03:35:43.541Z,14.40
2022-08-07T03:39:59.113Z,14.40
2022-08-07T03:43:38.382Z,14.40
2022-08-07T03:47:29.405Z,14.30
2022-08-07T03:51:12.073Z,14.30
2022-08-07T03:55:07.090Z,14.30
2022-08-07T03:59:07.922Z,14.30
2022-08-07T04:02:52.605Z,14.30
2022-08-07T04:06:40.904Z,14.30
2022-08-07T04:10:23.811Z,14.30
2022-08-07T04:14:33.072Z,14.40
2022-08-07T04:18:57.025Z,14.30
2022-08-07T04:22:17.814Z,14.30
2022-08-07T04:26:00.052Z,14.30
2022-08-07T04:29:58.518Z,14.30
2022-08-07T04:33:46.764Z,14.30
2022-08-07T04:37:52.816Z,14.30
2022-08-07T04:41:39.485Z,14.30
2022-08-07T04:45:57.562Z,14.30
2022-08-07T04:50:03.874Z,14.30
2022-08-07T04:54:17.478Z,14.30
2022-08-07T04:59:18.393Z,14.20
2022-08-07T05:02:52.729Z,14.10
2022-08-07T05:06:51.582Z,14.00
2022-08-07T05:10:43.633Z,13.90
2022-08-07T05:14:56.348Z,13.80
2022-08-07T05:19:04.918Z,13.70
2022-08-07T05:22:49.600Z,13.70
2022-08-07T05:26:34.174Z,13.70
2022-08-07T05:30:29.937Z,13.60
2022-08-07T05:34:17.304Z,13.60
2022-08-07T05:38:09.081Z,13.50
2022-08-07T05:42:01.137Z,13.60
2022-08-07T05:45:48.333Z,13.60
2022-08-07T05:49:40.877Z,13.60
2022-08-07T05:54:13.309Z,13.70
2022-08-07T05:57:26.774Z,13.80
2022-08-07T06:01:14.077Z,13.90
2022-08-07T06:05:01.776Z,14.30
2022-08-07T06:08:46.731Z,14.80
2022-08-07T06:12:31.997Z,15.50
2022-08-07T06:16:16.463Z,16.00
2022-08-07T06:20:04.020Z,16.60
2022-08-07T06:24:37.817Z,17.10
2022-08-07T06:28:54.455Z,17.70
2022-08-07T06:32:37.441Z,18.30
2022-08-07T06:36:34.930Z,18.90
2022-08-07T06:40:21.403Z,19.50
2022-08-07T06:44:10.719Z,19.90
2022-08-07T06:47:58.615Z,20.40
2022-08-07T06:51:49.962Z,20.90
2022-08-07T06:55:59.845Z,21.30
2022-08-07T07:00:12.385Z,21.80
2022-08-07T07:03:48.731Z,22.20
2022-08-07T07:07:59.734Z,22.70
2022-08-07T07:12:09.096Z,23.10
2022-08-07T07:15:51.382Z,23.60
2022-08-07T07:19:57.408Z,24.10
2022-08-07T07:24:09.726Z,24.60
2022-08-07T07:28:02.128Z,25.00
2022-08-07T07:31:51.687Z,25.50
2022-08-07T07:35:54.328Z,25.90
2022-08-07T07:39:52.519Z,26.20
2022-08-07T07:44:14.417Z,26.50
2022-08-07T07:47:52.456Z,27.00
2022-08-07T07:51:58.509Z,27.40
2022-08-07T07:55:54.841Z,27.80
2022-08-07T08:04:12.233Z,28.50
2022-08-07T08:08:00.867Z,28.80
2022-08-07T08:11:59.352Z,29.20
2022-08-07T08:15:58.846Z,29.60
2022-08-07T08:20:17.302Z,29.90
2022-08-07T08:24:04.269Z,30.10
2022-08-07T08:27:56.521Z,30.40
2022-08-07T08:31:58.729Z,30.80
2022-08-07T08:35:54.753Z,31.10
2022-08-07T08:39:38.965Z,31.50
2022-08-07T08:44:03.015Z,31.80
2022-08-07T08:48:05.446Z,32.10
2022-08-07T08:52:30.370Z,32.40
2022-08-07T08:56:47.299Z,32.80
2022-08-07T09:00:43.418Z,33.10
2022-08-07T09:04:50.194Z,33.40
2022-08-07T09:08:46.864Z,33.50
2022-08-07T09:12:54.159Z,33.50
2022-08-07T09:17:05.898Z,33.60
2022-08-07T09:21:02.841Z,33.90
2022-08-07T09:25:20.124Z,34.10
2022-08-07T09:30:04.695Z,34.30
2022-08-07T09:33:57.424Z,34.60
2022-08-07T09:37:54.047Z,35.10
2022-08-07T09:42:09.644Z,35.60
2022-08-07T09:47:24.370Z,36.00
2022-08-07T09:51:25.916Z,36.50
2022-08-07T09:56:03.580Z,37.10
2022-08-07T10:00:14.845Z,37.60
2022-08-07T10:04:14.402Z,38.10
2022-08-07T10:08:35.536Z,38.50
2022-08-07T10:12:21.459Z,38.80
2022-08-07T10:16:26.363Z,39.10
2022-08-07T10:20:35.282Z,39.50
2022-08-07T10:24:46.642Z,39.70
2022-08-07T10:29:02.991Z,40.10
2022-08-07T10:34:05.669Z,40.10
2022-08-07T10:38:21.663Z,40.20
2022-08-07T10:42:39.261Z,40.00
2022-08-07T10:46:37.871Z,40.40
2022-08-07T10:50:29.735Z,40.70
2022-08-07T10:54:24.524Z,41.00
2022-08-07T10:58:33.030Z,41.30
2022-08-07T11:02:54.671Z,41.70
2022-08-07T11:07:58.772Z,42.10
2022-08-07T11:11:37.597Z,42.50
2022-08-07T11:15:31.967Z,43.10
2022-08-07T11:19:56.180Z,43.30
2022-08-07T11:24:08.548Z,43.60
2022-08-07T11:28:04.864Z,44.00
2022-08-07T11:31:58.136Z,44.10
2022-08-07T11:35:59.650Z,44.20
2022-08-07T11:40:22.634Z,44.50
2022-08-07T11:44:20.898Z,44.90
2022-08-07T11:48:29.728Z,45.20
2022-08-07T11:53:05.139Z,45.40
2022-08-07T11:56:53.143Z,45.80
2022-08-07T12:00:48.885Z,46.30
2022-08-07T12:05:28.753Z,46.90
2022-08-07T12:09:55.773Z,47.40
2022-08-07T12:13:47.631Z,47.90
2022-08-07T12:17:38.063Z,48.30
2022-08-07T12:21:55.585Z,48.60
2022-08-07T12:26:06.138Z,48.90
2022-08-07T12:30:12.346Z,48.80
2022-08-07T12:34:01.830Z,48.80
2022-08-07T12:38:11.171Z,49.00
2022-08-07T12:41:54.702Z,49.10
2022-08-07T12:45:56.892Z,48.80
2022-08-07T12:50:05.000Z,48.50
2022-08-07T12:54:36.858Z,48.50
2022-08-07T12:58:28.165Z,48.60
2022-08-07T13:02:58.970Z,48.60
2022-08-07T13:07:01.021Z,48.40
2022-08-07T13:11:08.847Z,48.10
2022-08-07T13:15:23.498Z,48.00
2022-08-07T13:19:51.816Z,47.70
2022-08-07T13:24:01.021Z,47.20
2022-08-07T13:28:42.729Z,47.10
2022-08-07T13:32:47.021Z,46.70
2022-08-07T13:36:46.554Z,46.50
2022-08-07T13:40:45.462Z,46.60
2022-08-07T13:44:39.453Z,46.60
2022-08-07T13:52:36.241Z,45.70
2022-08-07T13:56:35.658Z,45.10
2022-08-07T14:00:39.735Z,42.90
2022-08-07T14:04:54.451Z,40.40
2022-08-07T14:08:45.794Z,38.30
2022-08-07T14:13:08.445Z,36.90
2022-08-07T14:16:56.498Z,35.70
2022-08-07T14:20:49.332Z,34.70
2022-08-07T14:24:42.328Z,33.90
2022-08-07T14:28:55.980Z,33.30
2022-08-07T14:32:47.429Z,32.90
2022-08-07T14:36:32.551Z,32.30
2022-08-07T14:40:26.353Z,31.80
2022-08-07T14:44:15.821Z,31.50
2022-08-07T14:48:01.806Z,31.10
2022-08-07T14:52:04.226Z,31.00
2022-08-07T14:55:56.493Z,30.80
2022-08-07T15:00:06.274Z,30.30
2022-08-07T15:03:52.960Z,29.90
2022-08-07T15:07:51.392Z,29.50
2022-08-07T15:11:53.152Z,29.40
2022-08-07T15:15:52.600Z,29.30
2022-08-07T15:20:31.444Z,29.10
2022-08-07T15:25:14.604Z,29.10
2022-08-07T15:28:02.000Z,29.10
2022-08-07T15:36:02.223Z,28.90
2022-08-07T15:39:59.892Z,28.80
2022-08-07T15:48:00.707Z,28.60
2022-08-07T15:55:53.581Z,28.40
2022-08-07T15:59:47.207Z,28.40
2022-08-07T16:03:47.452Z,28.30
2022-08-07T16:08:30.743Z,28.10
2022-08-07T16:11:49.985Z,28.10
2022-08-07T16:15:57.365Z,28.10
2022-08-07T16:20:02.860Z,28.00
2022-08-07T16:23:59.893Z,27.90
2022-08-07T16:27:59.689Z,27.90
2022-08-07T16:31:58.294Z,27.80
2022-08-07T16:36:03.147Z,27.80
2022-08-07T16:40:28.157Z,27.70
2022-08-07T16:44:47.261Z,27.70
2022-08-07T16:48:58.444Z,27.60
2022-08-07T16:53:20.725Z,27.60
2022-08-07T16:58:01.884Z,27.50
2022-08-07T17:01:56.557Z,27.50
2022-08-07T17:06:29.628Z,27.40
2022-08-07T17:10:33.267Z,27.30
2022-08-07T17:14:25.893Z,27.30
2022-08-07T17:18:28.308Z,27.20
2022-08-07T17:22:45.869Z,27.10
2022-08-07T17:27:00.192Z,27.10
2022-08-07T17:30:58.540Z,27.10
2022-08-07T17:35:32.881Z,27.10
2022-08-07T17:39:16.707Z,27.00
2022-08-07T17:43:18.557Z,27.00
2022-08-07T17:47:17.013Z,26.90
2022-08-07T17:51:21.519Z,26.90
2022-08-07T17:55:16.492Z,26.80
2022-08-07T17:59:25.579Z,26.80
2022-08-07T18:03:54.068Z,26.70
2022-08-07T18:07:47.064Z,26.60
2022-08-07T18:12:16.709Z,26.60
2022-08-07T18:16:06.920Z,26.60
2022-08-07T18:21:09.469Z,26.50
2022-08-07T18:24:07.702Z,26.40
2022-08-07T18:27:54.929Z,26.30
2022-08-07T18:32:00.258Z,26.30
2022-08-07T18:35:58.524Z,26.20
2022-08-07T18:40:06.344Z,26.10
2022-08-07T18:44:24.051Z,26.10
2022-08-07T18:50:35.139Z,26.00
2022-08-07T18:52:56.386Z,26.00
2022-08-07T18:56:57.875Z,25.90
2022-08-07T19:01:05.860Z,25.80
2022-08-07T19:05:15.132Z,25.80
2022-08-07T19:09:09.343Z,25.60
2022-08-07T19:13:50.054Z,25.60
2022-08-07T19:17:55.726Z,25.50
2022-08-07T19:21:58.519Z,25.40
2022-08-07T19:26:24.870Z,25.30
2022-08-07T19:31:06.200Z,25.20
2022-08-07T19:34:03.140Z,25.10
2022-08-07T19:37:57.508Z,25.10
2022-08-07T19:42:08.149Z,25.00
2022-08-07T19:46:06.016Z,24.90
2022-08-07T19:49:58.402Z,24.80
2022-08-07T19:54:30.848Z,24.60
2022-08-07T19:58:13.685Z,24.50
2022-08-07T20:02:01.633Z,24.40
2022-08-07T20:06:00.713Z,24.30
2022-08-07T20:10:35.652Z,24.20
2022-08-07T20:13:58.916Z,24.10
2022-08-07T20:17:45.402Z,24.00
2022-08-07T20:21:47.748Z,24.00
2022-08-07T20:25:32.722Z,23.90
2022-08-07T20:29:49.050Z,23.80
2022-08-07T20:33:37.621Z,23.60
2022-08-07T20:37:55.176Z,23.60
2022-08-07T20:41:40.567Z,23.50
2022-08-07T20:45:33.509Z,23.30
2022-08-07T20:49:59.476Z,23.20
2022-08-07T20:54:03.109Z,23.10
2022-08-07T20:58:02.579Z,22.90
2022-08-07T21:01:55.154Z,22.80
2022-08-07T21:05:55.871Z,22.70
2022-08-07T21:09:53.274Z,22.60
2022-08-07T21:14:16.647Z,22.50
2022-08-07T21:18:03.662Z,22.50
2022-08-07T21:21:57.163Z,22.30
2022-08-07T21:25:56.866Z,22.20
2022-08-07T21:29:53.126Z,22.20
2022-08-07T21:33:46.862Z,22.10
2022-08-07T21:37:59.140Z,22.10
2022-08-07T21:41:52.269Z,22.00
2022-08-07T21:46:08.752Z,22.00
2022-08-07T21:50:03.282Z,21.80
2022-08-07T21:53:53.703Z,21.80
2022-08-07T21:57:52.258Z,21.70
2022-08-07T22:02:11.282Z,21.60
2022-08-07T22:06:07.792Z,21.50
2022-08-07T22:10:11.806Z,21.50
2022-08-07T22:13:57.464Z,21.40
2022-08-07T22:18:02.204Z,21.30
2022-08-07T22:22:21.457Z,21.30
2022-08-07T22:26:44.440Z,21.10
2022-08-07T22:30:31.960Z,21.10
2022-08-07T22:34:37.569Z,21.00
2022-08-07T22:38:26.493Z,20.90
2022-08-07T22:42:25.625Z,20.80
2022-08-07T22:47:02.538Z,20.70
2022-08-07T22:51:16.350Z,20.60
2022-08-07T22:55:36.297Z,20.50
2022-08-07T22:59:33.205Z,20.30
2022-08-07T23:03:58.786Z,20.00
2022-08-07T23:08:07.084Z,19.90
2022-08-07T23:12:34.154Z,19.80
2022-08-07T23:16:54.914Z,19.60
2022-08-07T23:21:00.264Z,19.60
2022-08-07T23:25:19.134Z,19.50
2022-08-07T23:29:43.693Z,19.50
2022-08-07T23:34:19.920Z,19.50
2022-08-07T23:38:09.512Z,19.30
2022-08-07T23:42:30.380Z,19.20
2022-08-07T23:46:50.295Z,19.10
2022-08-07T23:50:45.271Z,19.00
2022-08-07T23:54:46.857Z,18.90
2022-08-07T23:58:37.796Z,18.90
